createdAt,value
2023-02-02T00:01:00.817Z,99701.97
2023-02-02T00:03:28.261Z,99702.19
2023-02-02T00:05:55.516Z,99703.31
2023-02-02T00:08:22.739Z,99706.97
2023-02-02T00:10:50.704Z,99709.88
2023-02-02T00:13:18.112Z,99684.97
2023-02-02T00:15:45.317Z,99706.38
2023-02-02T00:18:12.879Z,99709.91
2023-02-02T00:20:40.064Z,99701.28
2023-02-02T00:23:07.377Z,99699.81
2023-02-02T00:25:34.829Z,99699.22
2023-02-02T00:28:01.979Z,99679.59
2023-02-02T00:30:29.275Z,99683.19
2023-02-02T00:32:56.759Z,99682.66
2023-02-02T00:35:24.892Z,99692.59
2023-02-02T00:37:52.269Z,99674.13
2023-02-02T00:40:19.761Z,99662.84
2023-02-02T00:42:50.429Z,99669.59
2023-02-02T00:45:17.900Z,99664.47
2023-02-02T00:47:46.973Z,99674.00
2023-02-02T00:50:15.308Z,99684.53
2023-02-02T00:52:42.602Z,99682.38
2023-02-02T00:55:10.540Z,99701.69
2023-02-02T00:57:37.812Z,99698.44
2023-02-02T01:00:06.909Z,99706.41
2023-02-02T01:02:35.131Z,99724.19
2023-02-02T01:05:02.487Z,99723.47
2023-02-02T01:07:29.655Z,99718.34
2023-02-02T01:09:57.355Z,99733.59
2023-02-02T01:12:24.546Z,99722.62
2023-02-02T01:14:51.766Z,99721.94
2023-02-02T01:17:19.464Z,99713.06
2023-02-02T01:19:47.134Z,99718.63
2023-02-02T01:22:14.327Z,99718.16
2023-02-02T01:24:41.778Z,99725.84
2023-02-02T01:27:08.980Z,99727.28
2023-02-02T01:29:36.219Z,99732.00
2023-02-02T01:32:04.022Z,99748.47
2023-02-02T01:34:31.725Z,99743.91
2023-02-02T01:36:58.933Z,99741.78
2023-02-02T01:39:26.380Z,99740.06
2023-02-02T01:41:53.543Z,99755.38
2023-02-02T01:44:39.176Z,99756.53
2023-02-02T01:47:06.613Z,99746.94
2023-02-02T01:49:34.154Z,99724.00
2023-02-02T01:52:01.570Z,99695.53
2023-02-02T01:54:33.714Z,99701.25
2023-02-02T01:57:03.209Z,99723.06
2023-02-02T01:59:30.757Z,99729.81
2023-02-02T02:01:57.950Z,99712.37
2023-02-02T02:04:25.540Z,99707.03
2023-02-02T02:06:53.743Z,99699.31
2023-02-02T02:09:21.166Z,99682.56
2023-02-02T02:11:48.612Z,99692.22
2023-02-02T02:14:34.700Z,99691.56
2023-02-02T02:17:21.209Z,99683.19
2023-02-02T02:20:26.057Z,99684.34
2023-02-02T02:23:31.462Z,99683.63
2023-02-02T02:26:36.550Z,99676.34
2023-02-02T02:29:04.435Z,99658.91
2023-02-02T02:31:35.315Z,99679.41
2023-02-02T02:34:05.629Z,99700.62
2023-02-02T02:36:35.167Z,99697.53
2023-02-02T02:39:13.305Z,99705.63
2023-02-02T02:41:45.062Z,99697.63
2023-02-02T02:44:12.976Z,99700.09
2023-02-02T02:46:40.419Z,99702.84
2023-02-02T02:49:08.712Z,99694.16
2023-02-02T02:51:48.892Z,99703.47
2023-02-02T02:54:35.912Z,99704.34
2023-02-02T02:57:18.468Z,99706.22
2023-02-02T02:59:49.522Z,99700.28
2023-02-02T03:02:17.167Z,99702.75
2023-02-02T03:04:56.502Z,99697.53
2023-02-02T03:07:25.911Z,99690.78
2023-02-02T03:09:53.103Z,99694.34
2023-02-02T03:12:20.245Z,99684.31
2023-02-02T03:14:47.745Z,99690.19
2023-02-02T03:17:14.890Z,99690.41
2023-02-02T03:19:42.049Z,99694.75
2023-02-02T03:22:09.643Z,99712.88
2023-02-02T03:24:36.791Z,99702.41
2023-02-02T03:27:04.003Z,99716.81
2023-02-02T03:29:31.477Z,99721.22
2023-02-02T03:31:58.685Z,99707.31
2023-02-02T03:34:25.880Z,99707.12
2023-02-02T03:36:53.319Z,99713.34
2023-02-02T03:39:20.513Z,99711.78
2023-02-02T03:41:47.663Z,99723.25
2023-02-02T03:44:15.126Z,99724.78
2023-02-02T03:46:42.307Z,99725.94
2023-02-02T03:49:09.618Z,99717.50
2023-02-02T03:51:37.062Z,99721.53
2023-02-02T03:54:04.909Z,99738.03
2023-02-02T03:56:34.413Z,99724.25
2023-02-02T03:59:01.872Z,99729.53
2023-02-02T04:01:29.475Z,99712.59
2023-02-02T04:03:57.524Z,99701.16
2023-02-02T04:06:24.975Z,99700.69
2023-02-02T04:08:52.279Z,99699.03
2023-02-02T04:11:19.725Z,99706.25
2023-02-02T04:13:47.153Z,99692.47
2023-02-02T04:16:14.389Z,99694.91
2023-02-02T04:18:41.869Z,99707.34
2023-02-02T04:21:09.106Z,99703.09
2023-02-02T04:23:36.587Z,99697.75
2023-02-02T04:26:04.421Z,99699.03
2023-02-02T04:28:31.596Z,99704.66
2023-02-02T04:30:59.192Z,99695.97
2023-02-02T04:33:27.079Z,99698.66
2023-02-02T04:35:54.363Z,99695.25
2023-02-02T04:38:21.825Z,99691.53
2023-02-02T04:40:49.309Z,99688.84
2023-02-02T04:43:16.543Z,99680.75
2023-02-02T04:45:43.884Z,99681.31
2023-02-02T04:48:11.342Z,99671.97
2023-02-02T04:50:38.514Z,99665.91
2023-02-02T04:53:05.715Z,99660.41
2023-02-02T04:55:36.078Z,99661.50
2023-02-02T04:58:03.262Z,99667.56
2023-02-02T05:00:30.416Z,99670.75
2023-02-02T05:02:57.881Z,99671.00
2023-02-02T05:05:25.236Z,99669.41
2023-02-02T05:07:52.652Z,99666.28
2023-02-02T05:10:20.200Z,99660.75
2023-02-02T05:12:47.368Z,99668.56
2023-02-02T05:15:14.613Z,99662.06
2023-02-02T05:17:42.103Z,99651.03
2023-02-02T05:20:09.719Z,99663.34
2023-02-02T05:22:36.883Z,99661.03
2023-02-02T05:25:05.091Z,99657.72
2023-02-02T05:27:32.429Z,99669.91
2023-02-02T05:29:59.627Z,99666.19
2023-02-02T05:32:28.857Z,99652.75
2023-02-02T05:34:56.104Z,99658.00
2023-02-02T05:37:23.337Z,99668.00
2023-02-02T05:39:52.208Z,99671.94
2023-02-02T05:42:19.421Z,99676.38
2023-02-02T05:44:46.581Z,99682.03
2023-02-02T05:47:14.105Z,99672.91
2023-02-02T05:49:41.279Z,99688.31
2023-02-02T05:52:09.439Z,99684.72
2023-02-02T05:54:36.851Z,99682.09
2023-02-02T05:57:04.000Z,99691.53
2023-02-02T05:59:31.214Z,99689.78
2023-02-02T06:01:58.658Z,99689.97
2023-02-02T06:04:26.169Z,99687.50
2023-02-02T06:06:53.383Z,99682.53
2023-02-02T06:09:20.595Z,99677.41
2023-02-02T06:11:49.045Z,99684.84
2023-02-02T06:14:16.261Z,99706.34
2023-02-02T06:16:43.459Z,99707.50
2023-02-02T06:19:10.896Z,99722.28
2023-02-02T06:21:38.108Z,99743.56
2023-02-02T06:24:05.407Z,99740.16
2023-02-02T06:26:33.429Z,99752.47
2023-02-02T06:29:00.607Z,99753.62
2023-02-02T06:31:27.862Z,99747.63
2023-02-02T06:33:56.138Z,99757.13
2023-02-02T06:36:23.723Z,99765.84
2023-02-02T06:38:54.558Z,99767.94
2023-02-02T06:41:21.987Z,99765.94
2023-02-02T06:43:49.248Z,99764.00
2023-02-02T06:46:16.532Z,99755.13
2023-02-02T06:48:44.001Z,99765.06
2023-02-02T06:51:11.214Z,99761.16
2023-02-02T06:53:38.573Z,99773.22
2023-02-02T06:56:06.843Z,99764.47
2023-02-02T06:58:34.745Z,99786.00
2023-02-02T07:01:05.869Z,99797.03
2023-02-02T07:03:33.637Z,99794.59
2023-02-02T07:06:10.308Z,99786.38
2023-02-02T07:08:37.739Z,99803.44
2023-02-02T07:11:13.215Z,99806.91
2023-02-02T07:13:44.539Z,99787.94
2023-02-02T07:16:13.153Z,99798.34
2023-02-02T07:18:40.618Z,99789.31
2023-02-02T07:21:10.433Z,99786.16
2023-02-02T07:23:37.632Z,99786.16
2023-02-02T07:26:05.798Z,99776.94
2023-02-02T07:28:33.683Z,99774.56
2023-02-02T07:31:01.400Z,99773.47
2023-02-02T07:33:28.907Z,99766.47
2023-02-02T07:35:56.602Z,99773.19
2023-02-02T07:38:24.789Z,99777.66
2023-02-02T07:40:51.947Z,99784.75
2023-02-02T07:43:20.585Z,99776.31
2023-02-02T07:45:47.740Z,99777.25
2023-02-02T07:48:14.964Z,99778.72
2023-02-02T07:50:42.410Z,99780.22
2023-02-02T07:53:09.580Z,99784.44
2023-02-02T07:55:36.883Z,99791.88
2023-02-02T07:58:04.564Z,99797.75
2023-02-02T08:00:31.753Z,99797.84
2023-02-02T08:02:59.346Z,99805.84
2023-02-02T08:05:27.094Z,99814.06
2023-02-02T08:07:54.413Z,99807.72
2023-02-02T08:10:22.015Z,99806.88
2023-02-02T08:12:49.203Z,99821.44
2023-02-02T08:15:16.392Z,99816.78
2023-02-02T08:17:49.866Z,99805.78
2023-02-02T08:20:17.111Z,99819.13
2023-02-02T08:22:44.584Z,99814.34
2023-02-02T08:25:14.325Z,99821.53
2023-02-02T08:27:41.499Z,99810.59
2023-02-02T08:30:09.691Z,99820.59
2023-02-02T08:32:37.057Z,99813.28
2023-02-02T08:35:04.306Z,99829.72
2023-02-02T08:37:31.808Z,99821.94
2023-02-02T08:39:59.008Z,99828.00
2023-02-02T08:42:26.225Z,99821.28
2023-02-02T08:45:59.759Z,99814.53
2023-02-02T08:47:41.847Z,99808.22
2023-02-02T08:50:09.742Z,99807.06
2023-02-02T08:52:37.048Z,99805.25
2023-02-02T08:55:04.515Z,99806.06
2023-02-02T08:57:32.703Z,99811.37
2023-02-02T08:59:59.842Z,99817.25
2023-02-02T09:02:27.066Z,99803.56
2023-02-02T09:04:54.622Z,99817.50
2023-02-02T09:07:21.845Z,99820.72
2023-02-02T09:09:50.984Z,99821.41
2023-02-02T09:12:18.878Z,99807.78
2023-02-02T09:14:46.307Z,99802.63
2023-02-02T09:17:13.549Z,99819.56
2023-02-02T09:19:41.409Z,99809.69
2023-02-02T09:22:08.590Z,99809.00
2023-02-02T09:24:35.736Z,99825.13
2023-02-02T09:27:03.269Z,99817.19
2023-02-02T09:29:30.533Z,99810.94
2023-02-02T09:31:57.780Z,99812.25
2023-02-02T09:34:25.309Z,99821.22
2023-02-02T09:36:52.808Z,99819.53
2023-02-02T09:39:20.574Z,99816.09
2023-02-02T09:41:58.201Z,99819.63
2023-02-02T09:44:25.653Z,99809.16
2023-02-02T09:46:57.727Z,99814.44
2023-02-02T09:49:37.264Z,99833.00
2023-02-02T09:52:09.041Z,99838.28
2023-02-02T09:54:39.626Z,99803.41
2023-02-02T09:57:10.795Z,99827.06
2023-02-02T09:59:39.641Z,99846.84
2023-02-02T10:02:10.300Z,99842.13
2023-02-02T10:04:38.993Z,99852.50
2023-02-02T10:07:19.304Z,99860.19
2023-02-02T10:09:56.366Z,99859.69
2023-02-02T10:13:03.961Z,99862.09
2023-02-02T10:16:02.854Z,99872.84
2023-02-02T10:18:33.443Z,99866.50
2023-02-02T10:21:06.879Z,99883.06
2023-02-02T10:23:37.801Z,99886.41
2023-02-02T10:26:19.212Z,99883.38
2023-02-02T10:29:09.945Z,99874.16
2023-02-02T10:31:46.486Z,99879.66
2023-02-02T10:34:18.317Z,99875.19
2023-02-02T10:36:55.220Z,99861.88
2023-02-02T10:39:22.531Z,99865.34
2023-02-02T10:41:52.981Z,99878.31
2023-02-02T10:44:41.621Z,99867.06
2023-02-02T10:47:10.005Z,99880.56
2023-02-02T10:49:38.832Z,99874.31
2023-02-02T10:52:17.118Z,99876.66
2023-02-02T10:55:01.007Z,99867.12
2023-02-02T10:57:52.558Z,99870.75
2023-02-02T11:00:25.499Z,99871.72
2023-02-02T11:02:53.424Z,99863.31
2023-02-02T11:05:42.439Z,99853.56
2023-02-02T11:08:14.660Z,99871.97
2023-02-02T11:10:47.249Z,99871.66
2023-02-02T11:13:30.555Z,99874.22
2023-02-02T11:16:16.786Z,99878.22
2023-02-02T11:18:45.299Z,99870.06
2023-02-02T11:21:23.243Z,99872.75
2023-02-02T11:23:51.232Z,99864.97
2023-02-02T11:26:18.868Z,99867.56
2023-02-02T11:28:47.490Z,99876.47
2023-02-02T11:31:29.653Z,99865.34
2023-02-02T11:34:20.406Z,99875.62
2023-02-02T11:37:04.530Z,99854.97
2023-02-02T11:39:31.963Z,99862.75
2023-02-02T11:42:00.353Z,99851.06
2023-02-02T11:44:28.493Z,99860.50
2023-02-02T11:46:57.464Z,99859.47
2023-02-02T11:49:24.917Z,99849.16
2023-02-02T11:51:59.938Z,99851.59
2023-02-02T11:54:29.719Z,99852.78
2023-02-02T11:56:58.109Z,99862.72
2023-02-02T11:59:31.294Z,99862.91
2023-02-02T12:02:21.727Z,99859.41
2023-02-02T12:04:50.453Z,99851.22
2023-02-02T12:07:29.582Z,99855.75
2023-02-02T12:10:00.568Z,99848.28
2023-02-02T12:12:37.092Z,99855.84
2023-02-02T12:15:20.166Z,99838.84
2023-02-02T12:17:48.524Z,99844.28
2023-02-02T12:20:22.959Z,99851.31
2023-02-02T12:23:09.392Z,99840.94
2023-02-02T12:25:45.830Z,99846.06
2023-02-02T12:28:42.216Z,99856.66
2023-02-02T12:31:33.051Z,99854.78
2023-02-02T12:34:07.196Z,99850.06
2023-02-02T12:36:37.775Z,99856.94
2023-02-02T12:39:09.335Z,99845.62
2023-02-02T12:41:39.247Z,99853.34
2023-02-02T12:44:19.412Z,99846.25
2023-02-02T12:46:55.114Z,99850.25
2023-02-02T12:49:43.275Z,99850.41
2023-02-02T12:52:29.848Z,99843.94
2023-02-02T12:55:11.072Z,99850.97
2023-02-02T12:57:47.981Z,99850.09
2023-02-02T13:00:18.363Z,99851.38
2023-02-02T13:02:52.013Z,99852.97
2023-02-02T13:08:48.797Z,99842.03
2023-02-02T13:11:46.823Z,99851.59
2023-02-02T13:14:16.366Z,99842.88
2023-02-02T13:16:48.397Z,99848.50
2023-02-02T13:19:21.238Z,99848.94
2023-02-02T13:21:48.436Z,99855.44
2023-02-02T13:24:17.564Z,99865.09
2023-02-02T13:26:44.804Z,99859.59
2023-02-02T13:29:11.994Z,99856.59
2023-02-02T13:31:44.185Z,99861.38
2023-02-02T13:34:21.849Z,99852.94
2023-02-02T13:36:51.161Z,99864.22
2023-02-02T13:39:20.083Z,99851.34
2023-02-02T13:41:47.492Z,99870.50
2023-02-02T13:44:24.088Z,99870.53
2023-02-02T13:47:01.669Z,99849.78
2023-02-02T13:49:41.218Z,99843.59
2023-02-02T13:52:08.842Z,99848.41
2023-02-02T13:54:55.158Z,99846.41
2023-02-02T13:57:28.298Z,99838.53
2023-02-02T14:00:01.659Z,99854.38
2023-02-02T14:02:40.197Z,99853.84
2023-02-02T14:05:08.103Z,99844.09
2023-02-02T14:07:35.393Z,99841.25
2023-02-02T14:10:04.407Z,99852.25
2023-02-02T14:12:32.677Z,99859.13
2023-02-02T14:15:00.042Z,99849.59
2023-02-02T14:17:27.241Z,99862.50
2023-02-02T14:19:55.105Z,99860.12
2023-02-02T14:22:42.105Z,99851.19
2023-02-02T14:25:28.596Z,99857.72
2023-02-02T14:28:00.099Z,99863.97
2023-02-02T14:30:38.607Z,99843.13
2023-02-02T14:33:21.425Z,99860.84
2023-02-02T14:35:48.828Z,99854.78
2023-02-02T14:38:22.265Z,99864.00
2023-02-02T14:41:01.748Z,99859.06
2023-02-02T14:43:49.822Z,99864.03
2023-02-02T14:46:33.135Z,99865.38
2023-02-02T14:49:00.246Z,99858.66
2023-02-02T14:51:28.609Z,99862.97
2023-02-02T14:54:08.608Z,99851.41
2023-02-02T14:56:39.785Z,99852.97
2023-02-02T15:02:01.964Z,99856.03
2023-02-02T15:04:29.547Z,99861.38
2023-02-02T15:06:59.539Z,99852.78
2023-02-02T15:09:27.881Z,99848.00
2023-02-02T15:12:14.642Z,99854.16
2023-02-02T15:14:44.958Z,99850.19
2023-02-02T15:17:15.759Z,99850.19
2023-02-02T15:19:44.933Z,99852.72
2023-02-02T15:22:30.816Z,99858.97
2023-02-02T15:24:59.211Z,99871.91
2023-02-02T15:27:26.316Z,99879.28
2023-02-02T15:29:55.093Z,99870.00
2023-02-02T15:32:22.854Z,99872.31
2023-02-02T15:34:51.127Z,99884.41
2023-02-02T15:37:40.986Z,99890.75
2023-02-02T15:40:11.169Z,99898.09
2023-02-02T15:42:55.101Z,99896.00
2023-02-02T15:45:29.659Z,99904.75
2023-02-02T15:47:57.960Z,99908.97
2023-02-02T15:50:25.411Z,99914.34
2023-02-02T15:52:52.902Z,99917.75
2023-02-02T15:55:20.003Z,99911.53
2023-02-02T15:57:48.815Z,99918.38
2023-02-02T16:00:22.541Z,99926.50
2023-02-02T16:02:51.745Z,99925.97
2023-02-02T16:05:25.450Z,99931.84
2023-02-02T16:08:04.942Z,99944.91
2023-02-02T16:10:34.719Z,99938.88
2023-02-02T16:13:02.617Z,99934.78
2023-02-02T16:15:31.895Z,99937.44
2023-02-02T16:18:00.318Z,99934.38
2023-02-02T16:20:28.647Z,99945.75
2023-02-02T16:22:56.292Z,99947.16
2023-02-02T16:25:23.850Z,99952.28
2023-02-02T16:27:52.997Z,99958.13
2023-02-02T16:30:31.357Z,99958.72
2023-02-02T16:32:59.106Z,99966.44
2023-02-02T16:35:31.569Z,99962.50
2023-02-02T16:38:12.017Z,99960.28
2023-02-02T16:40:39.185Z,99965.63
2023-02-02T16:43:16.712Z,99966.22
2023-02-02T16:45:48.695Z,99954.19
2023-02-02T16:48:27.102Z,99973.00
2023-02-02T16:51:07.646Z,99983.59
2023-02-02T16:53:35.121Z,99982.16
2023-02-02T16:56:03.401Z,99995.97
2023-02-02T16:58:30.865Z,100007.91
2023-02-02T17:01:13.433Z,100006.56
2023-02-02T17:03:45.596Z,100015.22
2023-02-02T17:06:13.188Z,100030.87
2023-02-02T17:08:41.009Z,100026.59
2023-02-02T17:11:20.716Z,100042.72
2023-02-02T17:13:48.208Z,100047.75
2023-02-02T17:16:16.828Z,100064.00
2023-02-02T17:18:44.438Z,100063.53
2023-02-02T17:21:17.218Z,100073.12
2023-02-02T17:23:44.906Z,100076.75
2023-02-02T17:26:13.679Z,100087.78
2023-02-02T17:28:40.937Z,100077.34
2023-02-02T17:31:17.170Z,100095.41
2023-02-02T17:33:44.890Z,100108.63
2023-02-02T17:36:12.286Z,100104.41
2023-02-02T17:38:40.055Z,100110.34
2023-02-02T17:41:07.693Z,100115.19
2023-02-02T17:43:35.073Z,100131.63
2023-02-02T17:46:03.058Z,100128.84
2023-02-02T17:48:31.356Z,100132.16
2023-02-02T17:51:06.510Z,100139.38
2023-02-02T17:53:34.644Z,100143.97
2023-02-02T17:56:02.576Z,100147.16
2023-02-02T17:58:30.336Z,100147.47
2023-02-02T18:00:59.226Z,100154.00
2023-02-02T18:03:35.411Z,100157.00
2023-02-02T18:06:03.748Z,100155.72
2023-02-02T18:08:32.433Z,100154.44
2023-02-02T18:11:00.091Z,100164.25
2023-02-02T18:13:27.531Z,100176.22
2023-02-02T18:15:56.264Z,100174.38
2023-02-02T18:18:23.697Z,100179.22
2023-02-02T18:20:51.080Z,100180.47
2023-02-02T18:23:19.189Z,100181.75
2023-02-02T18:25:46.787Z,100193.47
2023-02-02T18:28:17.290Z,100193.47
2023-02-02T18:30:46.475Z,100182.44
2023-02-02T18:33:14.720Z,100187.75
2023-02-02T18:35:43.044Z,100189.87
2023-02-02T18:38:11.400Z,100195.56
2023-02-02T18:40:38.747Z,100183.19
2023-02-02T18:43:06.190Z,100187.59
2023-02-02T18:45:33.803Z,100199.72
2023-02-02T18:48:01.247Z,100190.84
2023-02-02T18:50:29.813Z,100200.13
2023-02-02T18:52:57.589Z,100199.44
2023-02-02T18:55:25.582Z,100205.44
2023-02-02T18:57:55.451Z,100202.75
2023-02-02T19:00:24.372Z,100203.97
2023-02-02T19:02:52.021Z,100209.78
2023-02-02T19:05:38.297Z,100214.13
2023-02-02T19:08:06.478Z,100214.56
2023-02-02T19:10:34.219Z,100221.34
2023-02-02T19:13:15.521Z,100219.72
2023-02-02T19:15:43.883Z,100210.78
2023-02-02T19:18:19.879Z,100211.09
2023-02-02T19:20:47.973Z,100206.09
2023-02-02T19:23:20.183Z,100210.16
2023-02-02T19:25:51.219Z,100215.25
2023-02-02T19:28:23.560Z,100222.59
2023-02-02T19:30:52.649Z,100207.53
2023-02-02T19:33:20.326Z,100212.03
2023-02-02T19:35:49.699Z,100214.50
2023-02-02T19:38:19.330Z,100221.72
2023-02-02T19:40:47.295Z,100216.94
2023-02-02T19:43:26.476Z,100224.03
2023-02-02T19:45:55.831Z,100228.00
2023-02-02T19:48:26.082Z,100232.94
2023-02-02T19:50:54.679Z,100239.81
2023-02-02T19:53:24.629Z,100245.25
2023-02-02T19:55:52.849Z,100245.97
2023-02-02T19:58:28.963Z,100258.41
2023-02-02T20:00:57.328Z,100254.78
2023-02-02T20:03:43.400Z,100252.94
2023-02-02T20:06:19.441Z,100262.03
2023-02-02T20:08:47.849Z,100257.84
2023-02-02T20:11:23.913Z,100259.09
2023-02-02T20:13:52.179Z,100260.44
2023-02-02T20:16:21.336Z,100269.94
2023-02-02T20:18:55.825Z,100268.88
2023-02-02T20:21:32.917Z,100281.91
2023-02-02T20:24:00.834Z,100281.56
2023-02-02T20:26:30.434Z,100276.69
2023-02-02T20:29:00.456Z,100275.50
2023-02-02T20:31:38.336Z,100285.63
2023-02-02T20:34:25.078Z,100289.78
2023-02-02T20:36:53.731Z,100288.44
2023-02-02T20:39:23.572Z,100301.13
2023-02-02T20:41:52.380Z,100306.84
2023-02-02T20:44:20.260Z,100303.81
2023-02-02T20:46:49.091Z,100314.06
2023-02-02T20:49:17.542Z,100307.81
2023-02-02T20:51:45.178Z,100320.66
2023-02-02T20:54:13.131Z,100321.16
2023-02-02T20:56:41.164Z,100314.97
2023-02-02T20:59:08.648Z,100316.75
2023-02-02T21:01:36.732Z,100326.91
2023-02-02T21:04:07.248Z,100333.41
2023-02-02T21:06:35.412Z,100339.69
2023-02-02T21:09:03.920Z,100341.59
2023-02-02T21:11:31.394Z,100352.97
2023-02-02T21:13:59.502Z,100346.28
2023-02-02T21:16:27.432Z,100351.66
2023-02-02T21:18:54.956Z,100342.94
2023-02-02T21:21:22.610Z,100354.66
2023-02-02T21:23:51.577Z,100353.44
2023-02-02T21:26:20.087Z,100355.47
2023-02-02T21:28:48.259Z,100363.84
2023-02-02T21:31:17.495Z,100373.13
2023-02-02T21:33:45.147Z,100363.13
2023-02-02T21:36:31.603Z,100355.66
2023-02-02T21:39:00.215Z,100365.78
2023-02-02T21:41:28.079Z,100381.25
2023-02-02T21:43:56.392Z,100370.44
2023-02-02T21:46:33.583Z,100373.19
2023-02-02T21:49:01.282Z,100377.34
2023-02-02T21:51:33.528Z,100377.44
2023-02-02T21:54:02.714Z,100376.41
2023-02-02T21:56:34.494Z,100384.75
2023-02-02T21:59:02.025Z,100375.56
2023-02-02T22:01:33.930Z,100375.47
2023-02-02T22:04:01.602Z,100379.13
2023-02-02T22:06:35.387Z,100372.31
2023-02-02T22:09:11.993Z,100381.12
2023-02-02T22:11:59.272Z,100378.66
2023-02-02T22:14:36.422Z,100386.75
2023-02-02T22:17:10.605Z,100387.53
2023-02-02T22:19:38.465Z,100376.50
2023-02-02T22:22:08.638Z,100382.97
2023-02-02T22:24:36.337Z,100379.09
2023-02-02T22:27:04.240Z,100385.22
2023-02-02T22:29:34.399Z,100397.72
2023-02-02T22:32:01.575Z,100404.62
2023-02-02T22:34:30.485Z,100405.66
2023-02-02T22:36:57.619Z,100408.66
2023-02-02T22:39:24.993Z,100413.00
2023-02-02T22:41:53.590Z,100407.47
2023-02-02T22:44:20.748Z,100424.00
2023-02-02T22:46:48.049Z,100418.50
2023-02-02T22:49:15.654Z,100431.09
2023-02-02T22:51:42.744Z,100435.31
2023-02-02T22:54:09.849Z,100427.00
2023-02-02T22:56:37.614Z,100427.75
2023-02-02T22:59:04.733Z,100423.50
2023-02-02T23:01:31.926Z,100436.97
2023-02-02T23:03:59.390Z,100433.06
2023-02-02T23:06:26.571Z,100440.19
2023-02-02T23:08:53.722Z,100430.16
2023-02-02T23:11:21.102Z,100439.09
2023-02-02T23:13:48.396Z,100439.66
2023-02-02T23:16:15.537Z,100445.53
2023-02-02T23:18:44.750Z,100441.56
2023-02-02T23:21:11.880Z,100439.78
2023-02-02T23:23:39.271Z,100457.94
2023-02-02T23:26:06.829Z,100464.97
2023-02-02T23:28:34.182Z,100455.75
2023-02-02T23:31:02.406Z,100475.62
2023-02-02T23:33:30.153Z,100468.22
2023-02-02T23:35:57.293Z,100474.91
2023-02-02T23:38:24.433Z,100473.12
2023-02-02T23:40:52.067Z,100483.06
2023-02-02T23:43:19.202Z,100502.22
2023-02-02T23:45:46.777Z,100496.00
2023-02-02T23:48:14.306Z,100506.09
2023-02-02T23:50:41.755Z,100503.00
2023-02-02T23:53:09.158Z,100513.62
2023-02-02T23:55:38.904Z,100520.91
2023-02-02T23:58:06.046Z,100513.38
